Leigh, United Kingdom
Current Conditions -  °F | °C
As of 12:20 PM on Thursday 29 Jan 2015 (Local Time) from EGCC Reporting Station
Scattered Clouds Scattered Clouds  
Wind Chill: 23°   Ceiling: Unl
Heat Index: 32°   Visibility: 6mi
Dew Point: 32°   Wind: 13mph
Humidity: 100%   Direction: 250°WSW
Pressure: 28.88"   Gusts: NA
Location:  53.5°N, 2.52°W
Report Text: EGCC 291220Z 25011KT 9999 FEW026CB SCT042 00/M00 Q0978 NOSIG
Loading
Personal Weather Stations






























Interactive Weather Map New forecast layout! Learn more

10-Day Weather Forecast

Advertisements
Track Severe Weather on mobile